createdAt,value
2022-11-24T00:01:40.819Z,6.30
2022-11-24T01:24:28.154Z,6.40
2022-11-24T06:17:15.273Z,8.50
2022-11-24T06:20:42.231Z,8.60
2022-11-24T06:49:32.779Z,8.00
2022-11-24T06:53:28.983Z,7.80
2022-11-24T07:39:01.818Z,7.80
2022-11-24T07:41:56.030Z,7.90
2022-11-24T07:44:47.260Z,7.90
2022-11-24T07:47:40.940Z,7.90
2022-11-24T07:50:31.624Z,7.80
2022-11-24T07:53:19.766Z,7.90
2022-11-24T07:56:12.502Z,8.00
2022-11-24T07:59:06.620Z,7.90
2022-11-24T08:01:54.640Z,7.90
2022-11-24T08:06:15.962Z,8.00
2022-11-24T08:08:48.649Z,8.00
2022-11-24T08:12:15.824Z,8.00
2022-11-24T08:15:14.402Z,8.00
2022-11-24T08:18:22.615Z,8.00
2022-11-24T08:21:44.727Z,8.00
2022-11-24T08:28:50.228Z,8.00
2022-11-24T08:50:46.008Z,8.30
2022-11-24T08:53:50.091Z,8.40
2022-11-24T09:08:04.692Z,8.90
2022-11-24T09:11:50.636Z,8.90
2022-11-24T09:15:17.452Z,9.20
2022-11-24T09:23:23.995Z,10.50
2022-11-24T09:34:47.145Z,9.90
2022-11-24T09:38:25.755Z,9.10
2022-11-24T09:45:12.969Z,8.90
2022-11-24T09:49:03.574Z,8.90
2022-11-24T09:52:14.855Z,8.90
2022-11-24T10:02:31.186Z,8.80
2022-11-24T10:06:59.310Z,8.80
2022-11-24T11:38:45.835Z,13.90
2022-11-24T11:57:51.286Z,11.40
2022-11-24T12:01:38.591Z,11.00
2022-11-24T12:05:01.933Z,10.80
2022-11-24T12:09:18.618Z,10.80
2022-11-24T12:15:53.850Z,11.20
2022-11-24T12:19:05.996Z,10.90
2022-11-24T12:22:51.917Z,11.00
2022-11-24T12:27:00.850Z,11.10
2022-11-24T12:40:17.995Z,11.40
2022-11-24T12:47:13.970Z,13.70
2022-11-24T12:50:27.909Z,13.90
2022-11-24T12:53:36.270Z,13.00
2022-11-24T12:56:48.420Z,13.30
2022-11-24T13:03:54.721Z,14.60
2022-11-24T13:07:10.475Z,14.50
2022-11-24T13:11:46.674Z,15.10
2022-11-24T13:15:01.137Z,15.70
2022-11-24T13:19:00.165Z,14.10
2022-11-24T13:22:36.122Z,13.50
2022-11-24T13:25:45.113Z,14.40
2022-11-24T13:29:23.868Z,14.30
2022-11-24T13:32:18.546Z,13.60
2022-11-24T13:36:04.834Z,14.00
2022-11-24T13:38:54.746Z,12.70
2022-11-24T13:41:50.629Z,11.90
2022-11-24T13:44:48.523Z,11.80
2022-11-24T13:47:47.814Z,11.40
2022-11-24T13:51:01.936Z,11.10
2022-11-24T13:54:41.354Z,11.10
2022-11-24T13:57:44.250Z,11.00
2022-11-24T14:00:38.486Z,11.00
2022-11-24T14:03:32.367Z,11.20
2022-11-24T14:11:00.311Z,12.10
2022-11-24T14:14:36.895Z,12.80
2022-11-24T14:17:38.540Z,13.10
2022-11-24T14:20:32.092Z,12.20
2022-11-24T14:23:24.119Z,11.90
2022-11-24T14:26:25.725Z,11.90
2022-11-24T14:29:22.042Z,12.10
2022-11-24T14:32:26.604Z,12.60
2022-11-24T14:35:31.631Z,12.60
2022-11-24T14:38:26.353Z,12.70
2022-11-24T14:45:25.708Z,11.50
2022-11-24T14:48:54.253Z,11.20
2022-11-24T14:52:18.228Z,11.00
2022-11-24T14:55:47.461Z,11.00
2022-11-24T14:58:42.557Z,10.90
2022-11-24T15:02:32.997Z,10.60
2022-11-24T15:09:48.397Z,10.40
2022-11-24T15:33:00.193Z,9.60
2022-11-24T15:35:52.063Z,9.40
2022-11-24T15:45:10.001Z,9.30
2022-11-24T15:47:58.126Z,9.20
2022-11-24T15:50:58.666Z,9.20
2022-11-24T16:02:22.559Z,9.10
2022-11-24T16:05:26.162Z,9.10
2022-11-24T16:08:32.067Z,9.00
2022-11-24T16:25:08.843Z,8.90
